Time;durP1;ratioP1;P1;durP2;ratioP2;P2;SDS_P1;SDS_P2;PMS_P1;PMS_P2;Temp;Humidity;BMP_temperature;BMP_pressure;BME280_temperature;BME280_humidity;BME280_pressure;Samples;Min_cycle;Max_cycle;Signal;HPM_P1;HPM_P2
2023/04/21 00:01:16;;;;;;;0.40;0.40;;;;;;;8.62;38.98;101778.63;5029000;28;20040;-55
2023/04/21 00:03:42;;;;;;;0.30;0.30;;;;;;;8.59;39.29;101781.16;5030497;28;20018;-59
2023/04/21 00:06:08;;;;;;;0.40;0.40;;;;;;;8.55;39.58;101764.69;5030300;28;20026;-58
2023/04/21 00:08:39;;;;;;;0.40;0.40;;;;;;;8.57;39.22;101774.19;5030406;28;20089;-57
2023/04/21 00:11:05;;;;;;;0.40;0.40;;;;;;;8.52;39.30;101771.47;5030292;28;20092;-56
2023/04/21 00:13:31;;;;;;;0.40;0.40;;;;;;;8.48;39.16;101775.69;5030105;28;20061;-58
2023/04/21 00:15:56;;;;;;;0.40;0.40;;;;;;;8.43;39.29;101778.16;5030198;28;20026;-58
2023/04/21 00:18:22;;;;;;;0.40;0.40;;;;;;;8.37;39.34;101772.88;5030133;28;20105;-55
2023/04/21 00:20:48;;;;;;;0.40;0.40;;;;;;;8.31;39.03;101771.03;5029912;28;20025;-55
2023/04/21 00:23:13;;;;;;;0.40;0.40;;;;;;;8.27;39.21;101768.31;5029963;28;20032;-58
2023/04/21 00:25:39;;;;;;;0.40;0.40;;;;;;;8.21;39.19;101771.63;5029944;28;20037;-54
2023/04/21 00:28:04;;;;;;;0.40;0.40;;;;;;;8.20;39.41;101772.47;5029881;28;20121;-58
2023/04/21 00:30:30;;;;;;;0.40;0.40;;;;;;;8.20;39.32;101772.47;5030104;28;20109;-55
2023/04/21 00:32:55;;;;;;;0.40;0.40;;;;;;;8.22;39.81;101765.63;5030157;28;20021;-57
2023/04/21 00:35:21;;;;;;;0.40;0.40;;;;;;;8.24;39.72;101760.50;5029998;28;20032;-56
2023/04/21 00:37:46;;;;;;;0.50;0.50;;;;;;;8.34;40.01;101762.44;5030108;28;20026;-55
2023/04/21 00:40:12;;;;;;;0.40;0.40;;;;;;;8.36;39.73;101767.66;5030155;28;20089;-58
2023/04/21 00:42:38;;;;;;;0.40;0.40;;;;;;;8.27;39.55;101758.88;5029952;28;20022;-57
2023/04/21 00:45:04;;;;;;;0.40;0.40;;;;;;;8.33;39.97;101760.69;5029969;28;20054;-58
2023/04/21 00:47:30;;;;;;;0.40;0.40;;;;;;;8.36;39.80;101762.47;5027901;28;20026;-57
2023/04/21 00:49:56;;;;;;;0.40;0.40;;;;;;;8.37;39.95;101765.09;5029470;28;20129;-56
2023/04/21 00:52:22;;;;;;;0.40;0.40;;;;;;;8.38;40.05;101766.88;5026939;28;20688;-56
2023/04/21 00:54:48;;;;;;;0.47;0.47;;;;;;;8.36;40.07;101755.59;5024008;28;20022;-57
2023/04/21 00:57:14;;;;;;;0.40;0.40;;;;;;;8.40;39.86;101766.91;5025368;28;20048;-57
2023/04/21 00:59:39;;;;;;;0.40;0.40;;;;;;;8.40;39.83;101764.31;5026998;28;20030;-56
2023/04/21 01:02:05;;;;;;;0.40;0.40;;;;;;;8.40;39.96;101764.31;5025106;28;20109;-57
2023/04/21 01:04:38;;;;;;;4.97;1.30;;;;;;;8.41;40.29;101760.88;5026657;28;20109;-58
2023/04/21 01:07:05;;;;;;;0.40;0.40;;;;;;;8.47;40.32;101765.31;5026594;28;20030;-58
2023/04/21 01:09:31;;;;;;;0.40;0.40;;;;;;;8.49;40.09;101758.44;5026700;28;20505;-58
2023/04/21 01:12:03;;;;;;;0.40;0.40;;;;;;;8.49;40.05;101756.75;5025000;28;20029;-58
2023/04/21 01:14:29;;;;;;;0.50;0.50;;;;;;;8.46;39.88;101758.38;5026238;28;20030;-58
2023/04/21 01:16:56;;;;;;;0.40;0.40;;;;;;;8.47;39.82;101765.31;5026263;28;20033;-57
2023/04/21 01:19:22;;;;;;;0.40;0.40;;;;;;;8.45;39.89;101765.25;5026442;28;20022;-55
2023/04/21 01:21:48;;;;;;;0.40;0.40;;;;;;;8.46;39.72;101763.56;5026455;28;20062;-52
2023/04/21 01:24:13;;;;;;;0.40;0.40;;;;;;;8.40;39.62;101759.13;5026424;28;20565;-55
2023/04/21 01:26:38;;;;;;;0.40;0.40;;;;;;;8.36;39.45;101758.19;5026122;28;20052;-59
2023/04/21 01:29:04;;;;;;;0.40;0.40;;;;;;;8.30;39.44;101753.75;5026171;28;20472;-57
2023/04/21 01:31:29;;;;;;;0.40;0.40;;;;;;;8.25;39.36;101757.06;5026260;28;20464;-59
2023/04/21 01:33:55;;;;;;;0.40;0.40;;;;;;;8.23;39.37;101756.13;5025992;28;20021;-58
2023/04/21 01:36:20;;;;;;;0.40;0.40;;;;;;;8.13;39.55;101755.06;5026014;28;20404;-58
2023/04/21 01:38:46;;;;;;;0.40;0.40;;;;;;;8.12;39.44;101751.59;5026223;28;20433;-56
2023/04/21 01:41:12;;;;;;;0.40;0.40;;;;;;;8.06;39.38;101744.59;5024519;28;20090;-57
2023/04/21 01:43:38;;;;;;;0.40;0.40;;;;;;;8.04;39.67;101745.38;5025280;28;20025;-58
2023/04/21 01:46:04;;;;;;;0.40;0.40;;;;;;;8.02;39.74;101747.91;5023847;28;20025;-59
2023/04/21 01:48:29;;;;;;;0.40;0.40;;;;;;;7.97;39.80;101743.50;5025619;28;20034;-57
2023/04/21 01:50:55;;;;;;;0.40;0.40;;;;;;;7.97;39.78;101751.25;5024600;28;20025;-55
2023/04/21 01:53:20;;;;;;;0.40;0.40;;;;;;;7.96;39.95;101746.88;5025616;28;20052;-55
2023/04/21 01:55:46;;;;;;;0.40;0.40;;;;;;;7.98;40.23;101745.22;5025761;28;20022;-58
2023/04/21 01:58:11;;;;;;;2.45;2.35;;;;;;;8.01;40.58;101750.47;5025365;28;20033;-56
2023/04/21 02:00:37;;;;;;;0.40;0.40;;;;;;;8.01;40.70;101745.31;5025691;28;20022;-55
2023/04/21 02:03:02;;;;;;;0.40;0.40;;;;;;;8.05;40.82;101741.97;5023583;28;20026;-58
2023/04/21 02:05:27;;;;;;;0.43;0.43;;;;;;;8.10;41.11;101745.50;5025264;28;20096;-58
2023/04/21 02:07:54;;;;;;;0.40;0.40;;;;;;;8.09;40.87;101743.78;5025615;28;20529;-57
2023/04/21 02:10:20;;;;;;;0.40;0.40;;;;;;;8.15;41.07;101738.75;5025396;28;20098;-59
2023/04/21 02:12:45;;;;;;;0.47;0.47;;;;;;;8.11;41.15;101742.09;5025264;28;20029;-56
2023/04/21 02:15:11;;;;;;;0.40;0.40;;;;;;;8.13;41.08;101747.31;5025288;28;20378;-56
2023/04/21 02:17:36;;;;;;;0.40;0.40;;;;;;;8.01;40.92;101722.91;5025318;28;20041;-58
2023/04/21 02:20:03;;;;;;;0.40;0.40;;;;;;;8.04;40.84;101745.38;5024569;28;20022;-56
2023/04/21 02:22:28;;;;;;;0.40;0.40;;;;;;;7.91;41.16;101736.44;5022634;28;20065;-57
2023/04/21 02:24:53;;;;;;;0.40;0.40;;;;;;;7.81;41.73;101751.72;5024400;28;20081;-57
2023/04/21 02:27:19;;;;;;;0.57;0.57;;;;;;;7.71;41.99;101739.44;5025176;28;20018;-57
2023/04/21 02:29:44;;;;;;;0.65;0.65;;;;;;;7.65;41.80;101737.53;5025341;28;20014;-58
2023/04/21 02:32:10;;;;;;;1.35;1.25;;;;;;;7.61;41.91;101745.19;5025161;28;20219;-57
2023/04/21 02:34:35;;;;;;;0.50;0.50;;;;;;;7.58;41.87;101740.81;5024737;28;20355;-55
2023/04/21 02:37:01;;;;;;;0.47;0.47;;;;;;;7.48;41.80;101734.53;5024595;28;20045;-57
2023/04/21 02:39:26;;;;;;;0.40;0.40;;;;;;;7.46;41.45;101735.34;5025118;28;20048;-57
2023/04/21 02:41:52;;;;;;;1.02;1.02;;;;;;;7.43;41.45;101741.28;5024804;28;20022;-54
2023/04/21 02:44:17;;;;;;;0.47;0.47;;;;;;;7.36;41.28;101742.84;5024824;28;20257;-55
2023/04/21 02:46:42;;;;;;;0.50;0.50;;;;;;;7.31;41.54;101747.03;5024941;28;20026;-58
2023/04/21 02:49:09;;;;;;;1.17;1.17;;;;;;;7.22;41.42;101741.59;5023652;28;20069;-58
2023/04/21 02:51:35;;;;;;;0.50;0.50;;;;;;;7.17;41.47;101744.91;5024670;28;20095;-56
2023/04/21 02:54:00;;;;;;;0.50;0.50;;;;;;;7.12;41.66;101743.94;5024458;28;20029;-57
2023/04/21 02:56:25;;;;;;;0.50;0.50;;;;;;;7.13;41.84;101742.22;5024459;28;20042;-56
2023/04/21 02:58:51;;;;;;;1.02;1.02;;;;;;;7.14;42.24;101734.50;5023405;28;20050;-56
2023/04/21 03:01:16;;;;;;;0.40;0.40;;;;;;;7.17;42.38;101739.75;5024285;28;20037;-56
2023/04/21 03:03:42;;;;;;;0.45;0.45;;;;;;;7.19;42.33;101737.22;5024666;28;20101;-57
2023/04/21 03:06:07;;;;;;;0.93;0.93;;;;;;;7.23;42.12;101740.75;5024685;28;20046;-58
2023/04/21 03:08:32;;;;;;;0.40;0.40;;;;;;;7.27;42.29;101734.84;5022967;28;20022;-58
2023/04/21 03:10:58;;;;;;;0.40;0.40;;;;;;;7.25;42.32;101733.94;5024544;28;20022;-58
2023/04/21 03:13:24;;;;;;;0.40;0.40;;;;;;;7.24;42.45;101732.16;5023101;28;20017;-55
2023/04/21 03:15:50;;;;;;;0.40;0.40;;;;;;;7.16;42.81;101732.84;5024357;28;20025;-55
2023/04/21 03:18:16;;;;;;;0.45;0.45;;;;;;;7.11;43.22;101726.69;5024467;28;20030;-56
2023/04/21 03:20:42;;;;;;;0.40;0.40;;;;;;;7.25;43.50;101726.19;5023006;28;20030;-57
2023/04/21 03:23:07;;;;;;;0.40;0.40;;;;;;;7.35;43.42;101722.16;5024434;28;20096;-56
2023/04/21 03:25:32;;;;;;;0.40;0.40;;;;;;;7.42;43.32;101724.03;5024265;28;20025;-58
2023/04/21 03:27:58;;;;;;;0.50;0.50;;;;;;;7.49;43.17;101720.78;5024254;28;20093;-57
2023/04/21 03:30:25;;;;;;;0.60;0.60;;;;;;;7.55;43.07;101722.66;5024266;28;20053;-57
2023/04/21 03:32:51;;;;;;;0.50;0.50;;;;;;;7.61;43.09;101714.16;5022661;28;20026;-57
2023/04/21 03:35:16;;;;;;;0.40;0.40;;;;;;;7.72;43.11;101728.25;5024010;28;20077;-58
2023/04/21 03:37:42;;;;;;;0.40;0.40;;;;;;;7.73;42.95;101721.38;5024241;28;20018;-54
2023/04/21 03:40:07;;;;;;;0.40;0.40;;;;;;;7.65;42.79;101722.03;5022499;28;20017;-57
2023/04/21 03:42:34;;;;;;;0.65;0.65;;;;;;;7.53;42.89;101712.28;5023630;28;20036;-57
2023/04/21 03:45:07;;;;;;;0.40;0.40;;;;;;;7.39;42.79;101716.22;5023852;28;20025;-58
2023/04/21 03:47:32;;;;;;;0.40;0.40;;;;;;;7.26;42.92;101721.06;5024055;28;20050;-58
2023/04/21 03:49:58;;;;;;;1.48;1.48;;;;;;;7.15;43.12;101713.03;5023754;28;20053;-57
2023/04/21 03:52:23;;;;;;;0.40;0.40;;;;;;;7.09;43.15;101710.28;5022313;28;20026;-56
2023/04/21 03:54:49;;;;;;;0.40;0.40;;;;;;;7.03;42.92;101715.25;5023119;28;20033;-57
2023/04/21 03:57:15;;;;;;;0.40;0.40;;;;;;;6.99;42.87;101716.00;5024089;28;20058;-59
2023/04/21 03:59:40;;;;;;;0.40;0.40;;;;;;;6.93;42.89;101714.16;5022486;28;20022;-56
2023/04/21 04:02:06;;;;;;;0.40;0.40;;;;;;;6.86;42.60;101710.50;5023997;28;20022;-52
2023/04/21 04:04:31;;;;;;;2.10;1.65;;;;;;;6.83;42.49;101713.00;5024104;28;20029;-52
2023/04/21 04:06:57;;;;;;;0.40;0.40;;;;;;;6.77;42.74;101708.53;5021829;28;20018;-59
2023/04/21 04:09:22;;;;;;;0.40;0.40;;;;;;;6.80;42.67;101712.94;5023856;28;20067;-59
2023/04/21 04:11:48;;;;;;;0.50;0.50;;;;;;;6.79;42.29;101706.88;5023843;28;20099;-58
2023/04/21 04:14:14;;;;;;;0.40;0.40;;;;;;;6.81;42.18;101701.75;5023342;28;20086;-58
2023/04/21 04:16:40;;;;;;;0.50;0.50;;;;;;;6.86;42.37;101701.88;5023573;28;20085;-56
2023/04/21 04:19:06;;;;;;;0.40;0.40;;;;;;;6.92;42.36;101702.06;5021590;28;20050;-58
2023/04/21 04:21:32;;;;;;;0.65;0.65;;;;;;;6.97;42.42;101709.94;5023540;28;20034;-60
2023/04/21 04:23:57;;;;;;;0.40;0.40;;;;;;;7.09;42.68;101705.13;5023607;28;20096;-57
2023/04/21 04:26:24;;;;;;;0.50;0.50;;;;;;;7.37;43.12;101702.38;5022666;28;20109;-59
2023/04/21 04:28:55;;;;;;;0.40;0.40;;;;;;;7.84;43.25;101701.81;5027205;28;20064;-59
2023/04/21 04:31:21;;;;;;;0.50;0.50;;;;;;;8.48;43.39;101704.94;5027408;28;20030;-59
2023/04/21 04:33:46;;;;;;;0.40;0.40;;;;;;;9.11;43.25;101702.78;5027150;28;20018;-58
2023/04/21 04:36:12;;;;;;;0.50;0.50;;;;;;;9.86;43.26;101696.25;5027076;28;20086;-58
2023/04/21 04:38:38;;;;;;;0.40;0.40;;;;;;;10.68;42.81;101702.56;5027156;28;20033;-58
2023/04/21 04:41:03;;;;;;;0.40;0.40;;;;;;;11.46;42.60;101703.34;5027183;28;20026;-58
2023/04/21 04:43:35;;;;;;;0.40;0.40;;;;;;;12.11;41.83;101705.59;5026959;28;20041;-58
2023/04/21 04:46:04;;;;;;;0.40;0.40;;;;;;;12.61;39.54;101693.69;5027010;28;20053;-58
2023/04/21 04:48:30;;;;;;;0.30;0.30;;;;;;;12.87;38.96;101692.94;5027007;28;20026;-57
2023/04/21 04:50:55;;;;;;;0.40;0.40;;;;;;;13.03;38.09;101692.94;5027105;28;20036;-57
2023/04/21 04:53:20;;;;;;;0.40;0.40;;;;;;;13.21;37.33;101691.25;5027068;28;20033;-57
2023/04/21 04:55:46;;;;;;;0.30;0.30;;;;;;;13.37;36.88;101692.97;5026692;28;20033;-57
2023/04/21 04:58:12;;;;;;;0.30;0.30;;;;;;;13.60;37.10;101688.66;5026710;28;20025;-58
2023/04/21 05:00:37;;;;;;;0.30;0.30;;;;;;;14.03;37.77;101690.34;5026915;28;20029;-59
2023/04/21 05:03:03;;;;;;;0.30;0.30;;;;;;;14.78;37.77;101687.47;5025287;28;20026;-58
2023/04/21 05:05:29;;;;;;;0.30;0.30;;;;;;;15.47;37.65;101684.41;5026412;28;20448;-60
2023/04/21 05:07:54;;;;;;;0.30;0.30;;;;;;;16.12;36.69;101679.47;5026598;28;20020;-59
2023/04/21 05:10:20;;;;;;;0.30;0.30;;;;;;;16.29;35.45;101680.13;5026782;28;20025;-60
2023/04/21 05:12:45;;;;;;;0.30;0.30;;;;;;;16.30;34.43;101680.97;5026656;28;20442;-61
2023/04/21 05:15:10;;;;;;;0.30;0.30;;;;;;;16.37;33.86;101671.31;5026799;28;20025;-58
2023/04/21 05:17:36;;;;;;;0.30;0.30;;;;;;;16.29;33.07;101687.13;5026497;28;20029;-59
2023/04/21 05:20:04;;;;;;;0.30;0.30;;;;;;;16.09;31.59;101681.22;5026625;28;20030;-59
2023/04/21 05:22:29;;;;;;;0.30;0.30;;;;;;;15.74;31.91;101677.19;5023956;28;20041;-60
2023/04/21 05:24:55;;;;;;;0.32;0.32;;;;;;;15.61;32.08;101674.69;5025885;28;20026;-59
2023/04/21 05:27:20;;;;;;;0.30;0.30;;;;;;;15.48;31.18;101671.31;5026128;28;20026;-58
2023/04/21 05:29:45;;;;;;;0.30;0.30;;;;;;;15.24;31.19;101660.16;5026254;28;20028;-60
2023/04/21 05:32:11;;;;;;;0.30;0.30;;;;;;;15.11;30.93;101663.78;5026075;28;20025;-60
2023/04/21 05:34:37;;;;;;;0.30;0.30;;;;;;;14.81;31.10;101665.72;5026290;28;20053;-61
2023/04/21 05:37:03;;;;;;;0.30;0.30;;;;;;;14.67;31.57;101663.13;5025842;28;20061;-60
2023/04/21 05:39:28;;;;;;;0.30;0.30;;;;;;;14.68;31.65;101665.72;5026106;28;20091;-60
2023/04/21 05:41:54;;;;;;;0.88;0.88;;;;;;;14.75;30.95;101669.19;5026038;28;20032;-59
2023/04/21 05:44:24;;;;;;;6.28;3.20;;;;;;;14.71;31.10;101672.69;5025573;28;20025;-60
2023/04/21 05:46:49;;;;;;;0.30;0.30;;;;;;;14.76;31.23;101676.13;5026112;28;20049;-60
2023/04/21 05:49:15;;;;;;;0.38;0.38;;;;;;;14.86;30.69;101676.97;5025945;28;20049;-59
2023/04/21 05:51:40;;;;;;;0.30;0.30;;;;;;;14.97;30.99;101666.44;5026011;28;20353;-60
2023/04/21 05:54:05;;;;;;;3.20;1.95;;;;;;;15.24;31.21;101669.75;5026038;28;20022;-60
2023/04/21 05:56:31;;;;;;;0.30;0.30;;;;;;;15.61;31.43;101674.69;5025658;28;20026;-60
2023/04/21 05:58:56;;;;;;;0.32;0.32;;;;;;;16.28;31.88;101660.03;5025639;28;20034;-59
2023/04/21 06:01:21;;;;;;;0.65;0.65;;;;;;;17.31;31.73;101670.88;5025808;28;20323;-59
2023/04/21 06:03:49;;;;;;;0.30;0.30;;;;;;;18.06;30.83;101662.53;5025718;28;20053;-59
2023/04/21 06:06:16;;;;;;;0.30;0.30;;;;;;;18.61;30.04;101664.03;5025586;28;20102;-60
2023/04/21 06:08:41;;;;;;;0.30;0.30;;;;;;;18.98;29.45;101659.69;5025715;28;20026;-59
2023/04/21 06:11:07;;;;;;;0.30;0.30;;;;;;;19.29;29.70;101645.81;5025515;28;20061;-59
2023/04/21 06:13:32;;;;;;;0.20;0.20;;;;;;;19.73;28.97;101652.56;5024193;28;20034;-60
2023/04/21 06:15:57;;;;;;;1.45;1.35;;;;;;;19.95;29.03;101657.28;5025384;28;20033;-59
2023/04/21 06:18:26;;;;;;;0.20;0.20;;;;;;;20.36;29.21;101648.22;5025523;28;20089;-59
2023/04/21 06:20:54;;;;;;;0.20;0.20;;;;;;;20.72;28.65;101650.63;5025411;28;20032;-59
2023/04/21 06:23:20;;;;;;;0.20;0.20;;;;;;;21.08;28.31;101656.59;5025385;28;20465;-59
2023/04/21 06:25:46;;;;;;;0.20;0.20;;;;;;;21.46;28.12;101648.28;5025472;28;20025;-60
2023/04/21 06:28:12;;;;;;;1.15;1.05;;;;;;;21.98;28.00;101637.66;5025342;28;20014;-59
2023/04/21 06:30:38;;;;;;;0.20;0.20;;;;;;;22.10;27.57;101640.75;5025351;28;20032;-59
2023/04/21 06:33:03;;;;;;;0.20;0.20;;;;;;;22.12;27.58;101638.94;5025019;28;20086;-61
2023/04/21 06:35:29;;;;;;;0.45;0.45;;;;;;;22.23;27.28;101631.47;5024889;28;20060;-59
2023/04/21 06:37:55;;;;;;;0.50;0.50;;;;;;;22.35;27.20;101632.75;5024761;28;20055;-61
2023/04/21 06:40:20;;;;;;;0.52;0.52;;;;;;;22.69;27.65;101627.94;5024948;28;20234;-60
2023/04/21 06:42:46;;;;;;;0.20;0.20;;;;;;;23.10;27.37;101631.59;5025179;28;20029;-60
2023/04/21 06:45:11;;;;;;;0.30;0.30;;;;;;;23.08;26.33;101628.16;5024803;28;20017;-59
2023/04/21 06:47:37;;;;;;;0.20;0.20;;;;;;;23.46;27.03;101628.34;5023975;28;20450;-58
2023/04/21 06:50:02;;;;;;;0.43;0.43;;;;;;;23.65;26.69;101619.56;5024049;28;20073;-59
2023/04/21 06:52:28;;;;;;;0.20;0.20;;;;;;;23.80;26.74;101619.81;5024734;28;20121;-59
2023/04/21 06:54:53;;;;;;;0.57;0.57;;;;;;;24.00;26.61;101618.88;5024935;28;20061;-59
2023/04/21 06:57:19;;;;;;;0.20;0.20;;;;;;;24.26;26.24;101608.88;5024647;28;20037;-58
2023/04/21 06:59:44;;;;;;;0.35;0.35;;;;;;;24.24;25.26;101608.97;5023275;28;20029;-59
2023/04/21 07:02:10;;;;;;;0.10;0.10;;;;;;;24.64;26.00;101621.22;5024896;28;20393;-59
2023/04/21 07:04:35;;;;;;;0.20;0.20;;;;;;;24.83;24.33;101604.38;5024725;28;20089;-60
2023/04/21 07:07:01;;;;;;;0.75;0.75;;;;;;;25.33;24.63;101612.53;5024700;28;20026;-59
2023/04/21 07:09:29;;;;;;;1.00;0.90;;;;;;;25.42;24.44;101612.06;5023601;28;20477;-60
2023/04/21 07:11:55;;;;;;;0.25;0.25;;;;;;;25.41;24.71;101610.34;5024596;28;20021;-60
2023/04/21 07:14:20;;;;;;;0.10;0.10;;;;;;;25.25;23.95;101611.16;5024483;28;20523;-60
2023/04/21 07:16:45;;;;;;;0.30;0.30;;;;;;;25.50;24.45;101607.19;5024392;28;20444;-60
2023/04/21 07:19:11;;;;;;;0.20;0.20;;;;;;;25.53;22.76;101606.16;5024710;28;20026;-59
2023/04/21 07:21:36;;;;;;;1.08;1.00;;;;;;;25.86;21.53;101609.81;5024507;28;20034;-59
2023/04/21 07:24:02;;;;;;;0.45;0.45;;;;;;;25.83;20.67;101602.81;5024528;28;20112;-59
2023/04/21 07:26:28;;;;;;;0.82;0.82;;;;;;;25.88;20.12;101599.91;5024464;28;20041;-59
2023/04/21 07:28:57;;;;;;;0.10;0.10;;;;;;;25.91;19.72;101599.75;5024433;28;20014;-59
2023/04/21 07:31:23;;;;;;;0.15;0.15;;;;;;;25.96;20.28;101597.69;5024078;28;20029;-58
2023/04/21 07:33:48;;;;;;;0.82;0.80;;;;;;;26.15;19.87;101594.00;5024340;28;20052;-58
2023/04/21 07:36:14;;;;;;;0.10;0.10;;;;;;;26.24;19.35;101590.84;5024175;28;20022;-59
2023/04/21 07:38:42;;;;;;;0.57;0.57;;;;;;;26.67;19.27;101584.03;5024359;28;20425;-60
2023/04/21 07:41:10;;;;;;;0.30;0.30;;;;;;;26.77;18.66;101594.13;5024469;28;20026;-59
2023/04/21 07:43:36;;;;;;;0.20;0.20;;;;;;;26.27;18.92;101588.94;5024005;28;20037;-57
2023/04/21 07:46:02;;;;;;;0.10;0.10;;;;;;;25.85;19.05;101585.00;5024033;28;20030;-59
2023/04/21 07:48:27;;;;;;;0.10;0.10;;;;;;;25.48;18.49;101589.63;5024145;28;20017;-59
2023/04/21 07:50:52;;;;;;;0.70;0.70;;;;;;;25.24;19.14;101590.81;5024051;28;20521;-59
2023/04/21 07:53:18;;;;;;;0.30;0.30;;;;;;;25.17;19.78;101592.09;5024299;28;20142;-59
2023/04/21 07:55:43;;;;;;;0.95;0.95;;;;;;;25.64;19.31;101586.16;5023895;28;20044;-61
2023/04/21 07:58:09;;;;;;;0.10;0.10;;;;;;;25.67;19.06;101583.34;5024082;28;20022;-60
2023/04/21 08:00:35;;;;;;;0.10;0.10;;;;;;;25.76;19.49;101587.28;5024880;28;20072;-59
2023/04/21 08:03:00;;;;;;;0.10;0.10;;;;;;;25.36;18.79;101581.34;5027984;28;20093;-59
2023/04/21 08:05:26;;;;;;;0.10;0.10;;;;;;;25.42;18.97;101577.50;5028232;28;20029;-59
2023/04/21 08:07:51;;;;;;;0.30;0.30;;;;;;;25.90;18.63;101582.06;5028004;28;20026;-59
2023/04/21 08:10:17;;;;;;;0.73;0.73;;;;;;;26.54;18.58;101581.22;5027848;28;20049;-58
2023/04/21 08:12:42;;;;;;;0.20;0.20;;;;;;;26.30;18.03;101583.44;5027785;28;20026;-59
2023/04/21 08:15:08;;;;;;;0.40;0.40;;;;;;;26.11;16.71;101579.16;5027888;28;20028;-59
2023/04/21 08:17:33;;;;;;;0.30;0.30;;;;;;;25.52;17.20;101572.56;5027493;28;20018;-59
2023/04/21 08:20:00;;;;;;;0.57;0.57;;;;;;;25.40;17.61;101566.09;5027851;28;20029;-58
2023/04/21 08:22:25;;;;;;;1.25;1.15;;;;;;;25.64;17.64;101565.72;5027625;28;20026;-58
2023/04/21 08:24:51;;;;;;;0.20;0.20;;;;;;;25.44;17.27;101567.66;5027790;28;20125;-59
2023/04/21 08:27:16;;;;;;;0.10;0.10;;;;;;;25.44;17.20;101562.34;5027431;28;20093;-59
2023/04/21 08:29:41;;;;;;;0.40;0.40;;;;;;;26.08;17.48;101553.59;5027310;28;20034;-59
2023/04/21 08:32:07;;;;;;;0.30;0.30;;;;;;;26.81;17.31;101558.38;5027527;28;20083;-58
2023/04/21 08:34:33;;;;;;;0.10;0.10;;;;;;;27.38;17.08;101559.41;5027543;28;20033;-58
2023/04/21 08:36:58;;;;;;;0.20;0.20;;;;;;;27.59;16.57;101551.03;5027416;28;20049;-58
2023/04/21 08:39:24;;;;;;;0.20;0.20;;;;;;;27.66;16.73;101549.72;5027162;28;20049;-57
2023/04/21 08:41:50;;;;;;;0.40;0.40;;;;;;;27.70;16.71;101548.59;5026077;28;20021;-58
2023/04/21 08:44:17;;;;;;;0.20;0.20;;;;;;;27.89;16.51;101547.44;5025735;28;20030;-58
2023/04/21 08:46:44;;;;;;;0.10;0.10;;;;;;;28.00;16.11;101546.72;5027083;28;20496;-58
2023/04/21 08:49:11;;;;;;;0.28;0.28;;;;;;;27.77;15.35;101550.84;5027044;28;20058;-58
2023/04/21 08:51:37;;;;;;;0.35;0.35;;;;;;;27.13;16.09;101546.75;5027239;28;20054;-59
2023/04/21 08:54:02;;;;;;;0.15;0.15;;;;;;;27.39;16.05;101547.81;5026490;28;20028;-59
2023/04/21 08:56:28;;;;;;;0.63;0.63;;;;;;;28.00;15.68;101540.53;5025674;28;20030;-58
2023/04/21 08:58:53;;;;;;;0.10;0.10;;;;;;;28.45;15.11;101541.13;5026795;28;20492;-60
2023/04/21 09:01:19;;;;;;;0.13;0.13;;;;;;;28.78;15.04;101535.44;5025519;28;20472;-58
2023/04/21 09:03:44;;;;;;;0.10;0.10;;;;;;;29.18;14.77;101543.41;5026845;28;20030;-58
2023/04/21 09:06:11;;;;;;;4.78;0.90;;;;;;;28.63;14.91;101537.34;5026511;28;20120;-59
2023/04/21 09:08:51;;;;;;;0.10;0.10;;;;;;;28.30;15.13;101539.47;5027108;28;20097;-58
2023/04/21 09:11:16;;;;;;;0.47;0.47;;;;;;;28.59;14.38;101528.69;5025871;28;20081;-59
2023/04/21 09:13:43;;;;;;;0.15;0.15;;;;;;;27.95;14.37;101530.16;5025779;28;20022;-59
2023/04/21 09:16:20;;;;;;;0.10;0.10;;;;;;;27.54;14.89;101535.31;5026738;28;20025;-59
2023/04/21 09:18:46;;;;;;;0.10;0.10;;;;;;;26.86;14.96;101532.31;5025433;28;20026;-59
2023/04/21 09:21:16;;;;;;;0.10;0.10;;;;;;;26.80;15.29;101530.91;5026437;28;20034;-58
2023/04/21 09:23:45;;;;;;;0.10;0.10;;;;;;;27.52;15.13;101531.06;5026115;28;20057;-59
2023/04/21 09:26:10;;;;;;;0.20;0.20;;;;;;;28.49;15.43;101524.91;5024369;28;20385;-59
2023/04/21 09:28:40;;;;;;;3.00;1.65;;;;;;;29.23;14.23;101523.50;5026539;28;20018;-59
2023/04/21 09:31:12;;;;;;;0.10;0.10;;;;;;;29.81;13.75;101517.59;5026489;28;20325;-59
2023/04/21 09:33:38;;;;;;;0.30;0.30;;;;;;;30.46;13.96;101509.31;5026463;28;20052;-59
2023/04/21 09:36:04;;;;;;;0.30;0.30;;;;;;;30.75;13.73;101511.53;5026183;28;20033;-59
2023/04/21 09:38:31;;;;;;;0.85;0.85;;;;;;;30.64;12.64;101506.19;5026491;28;20094;-59
2023/04/21 09:40:58;;;;;;;0.10;0.10;;;;;;;30.23;13.06;101501.19;5026363;28;20481;-60
2023/04/21 09:43:23;;;;;;;0.10;0.10;;;;;;;30.13;13.17;101502.81;5026250;28;20088;-59
2023/04/21 09:45:50;;;;;;;0.32;0.32;;;;;;;29.27;13.77;101504.44;5026280;28;20029;-60
2023/04/21 09:48:17;;;;;;;0.10;0.10;;;;;;;28.72;13.58;101499.31;5025720;28;20034;-58
2023/04/21 09:50:46;;;;;;;0.10;0.10;;;;;;;28.32;13.16;101494.88;5026248;28;20075;-59
2023/04/21 09:53:15;;;;;;;0.20;0.20;;;;;;;27.60;13.98;101483.44;5026084;28;20032;-58
2023/04/21 09:55:42;;;;;;;3.25;1.52;;;;;;;27.76;14.59;101488.66;5025913;28;20026;-60
2023/04/21 09:58:12;;;;;;;0.10;0.10;;;;;;;28.11;14.24;101479.28;5024388;28;20034;-59
2023/04/21 10:00:38;;;;;;;0.10;0.10;;;;;;;27.95;14.07;101480.31;5026003;28;20076;-60
2023/04/21 10:03:09;;;;;;;0.10;0.10;;;;;;;27.97;14.31;101472.22;5025798;28;20052;-58
2023/04/21 10:05:35;;;;;;;0.45;0.45;;;;;;;28.19;14.53;101463.63;5025804;28;20033;-63
2023/04/21 10:08:00;;;;;;;0.10;0.10;;;;;;;29.11;14.76;101464.59;5025778;28;20052;-59
2023/04/21 10:10:30;;;;;;;0.22;0.22;;;;;;;29.97;13.98;101463.78;5025585;28;20081;-59
2023/04/21 10:12:57;;;;;;;0.28;0.28;;;;;;;30.06;13.66;101455.06;5024236;28;20026;-60
2023/04/21 10:15:39;;;;;;;1.10;1.08;;;;;;;29.67;13.80;101459.75;5024637;28;20459;-59
2023/04/21 10:18:24;;;;;;;0.17;0.17;;;;;;;29.14;13.77;101451.00;5025522;28;20029;-60
2023/04/21 10:21:03;;;;;;;0.65;0.65;;;;;;;28.61;14.01;101453.78;5025451;28;20087;-60
2023/04/21 10:23:36;;;;;;;2.30;2.10;;;;;;;28.47;14.47;101452.06;5025337;28;20026;-58
2023/04/21 10:26:18;;;;;;;0.10;0.10;;;;;;;28.43;14.32;101449.63;5024637;28;20025;-58
2023/04/21 10:28:46;;;;;;;0.10;0.10;;;;;;;28.61;14.58;101451.13;5025322;28;20079;-59
2023/04/21 10:31:41;;;;;;;0.10;0.10;;;;;;;28.92;14.81;101447.16;5024724;28;20044;-58
2023/04/21 10:34:12;;;;;;;0.10;0.10;;;;;;;29.36;14.17;101445.94;5024828;28;20029;-59
2023/04/21 10:36:43;;;;;;;0.30;0.30;;;;;;;29.59;14.25;101441.59;5025315;28;20029;-56
2023/04/21 10:39:14;;;;;;;0.10;0.10;;;;;;;29.64;13.75;101438.59;5025495;28;20507;-58
2023/04/21 10:41:42;;;;;;;0.27;0.27;;;;;;;29.38;13.94;101431.47;5024119;28;20030;-59
2023/04/21 10:44:12;;;;;;;0.32;0.32;;;;;;;29.19;14.16;101427.47;5024752;28;20267;-58
2023/04/21 10:46:45;;;;;;;0.10;0.10;;;;;;;29.18;14.33;101423.09;5024988;28;20041;-60
2023/04/21 10:49:19;;;;;;;0.10;0.10;;;;;;;29.59;13.80;101419.34;5024857;28;20050;-58
2023/04/21 10:52:03;;;;;;;0.90;0.90;;;;;;;29.51;14.08;101414.53;5024987;28;20032;-59
2023/04/21 10:54:30;;;;;;;0.17;0.17;;;;;;;29.37;13.87;101412.88;5025022;28;20054;-58
2023/04/21 10:56:58;;;;;;;0.10;0.10;;;;;;;29.11;14.32;101402.25;5024988;28;20104;-60
2023/04/21 10:59:25;;;;;;;0.95;0.95;;;;;;;28.74;13.82;101409.22;5024588;28;20070;-59
2023/04/21 11:01:51;;;;;;;0.10;0.10;;;;;;;28.42;14.38;101407.00;5024993;28;20045;-59
2023/04/21 11:04:18;;;;;;;0.57;0.57;;;;;;;28.30;14.55;101397.97;5024928;28;20026;-59
2023/04/21 11:07:03;;;;;;;0.20;0.20;;;;;;;27.91;14.84;101393.41;5024489;28;20028;-58
2023/04/21 11:09:29;;;;;;;0.10;0.10;;;;;;;28.17;14.96;101398.81;5024813;28;20438;-59
2023/04/21 11:12:03;;;;;;;0.10;0.10;;;;;;;28.04;14.82;101389.91;5024663;28;20446;-60
2023/04/21 11:14:30;;;;;;;0.40;0.40;;;;;;;28.19;15.53;101388.88;5024734;28;20162;-59
2023/04/21 11:16:55;;;;;;;0.35;0.35;;;;;;;28.58;15.29;101386.25;5023181;28;20081;-59
2023/04/21 11:19:23;;;;;;;0.20;0.20;;;;;;;28.72;15.12;101388.91;5024680;28;20045;-58
2023/04/21 11:21:49;;;;;;;0.10;0.10;;;;;;;28.73;15.10;101386.13;5024267;28;20038;-59
2023/04/21 11:24:14;;;;;;;0.20;0.20;;;;;;;28.44;15.33;101383.69;5024497;28;20080;-59
2023/04/21 11:26:41;;;;;;;0.35;0.35;;;;;;;27.00;16.25;101376.09;5024479;28;20056;-58